createdAt,value
2022-11-12T00:01:51.544Z,0.80
2022-11-12T00:04:38.177Z,0.80
2022-11-12T00:07:26.020Z,0.80
2022-11-12T00:10:12.829Z,0.80
2022-11-12T00:12:59.676Z,0.80
2022-11-12T00:15:47.819Z,0.80
2022-11-12T00:18:34.594Z,0.80
2022-11-12T00:21:20.980Z,0.80
2022-11-12T00:24:09.295Z,0.80
2022-11-12T00:26:56.475Z,0.80
2022-11-12T00:29:43.112Z,0.80
2022-11-12T00:32:29.656Z,0.80
2022-11-12T00:35:16.509Z,0.80
2022-11-12T00:38:03.082Z,0.80
2022-11-12T00:40:50.948Z,0.70
2022-11-12T00:43:37.861Z,0.70
2022-11-12T00:46:24.364Z,0.70
2022-11-12T00:49:11.122Z,0.70
2022-11-12T00:51:57.657Z,0.80
2022-11-12T00:54:44.529Z,0.70
2022-11-12T00:57:32.811Z,0.70
2022-11-12T01:00:20.207Z,0.70
2022-11-12T01:03:06.788Z,0.70
2022-11-12T01:05:53.374Z,0.70
2022-11-12T01:08:40.035Z,0.70
2022-11-12T01:11:28.105Z,0.70
2022-11-12T01:14:16.155Z,0.70
2022-11-12T01:17:02.460Z,0.60
2022-11-12T01:19:48.875Z,0.60
2022-11-12T01:22:35.505Z,0.60
2022-11-12T01:25:22.333Z,0.60
2022-11-12T01:28:09.002Z,0.50
2022-11-12T01:30:56.770Z,0.50
2022-11-12T01:33:45.640Z,0.50
2022-11-12T01:36:37.233Z,0.50
2022-11-12T01:39:24.129Z,0.40
2022-11-12T01:42:11.374Z,0.20
2022-11-12T01:44:57.905Z,0.40
2022-11-12T01:47:50.755Z,0.40
2022-11-12T01:50:39.636Z,0.30
2022-11-12T01:53:29.359Z,0.40
2022-11-12T01:56:17.336Z,0.30
2022-11-12T01:59:08.960Z,0.30
2022-11-12T02:01:55.739Z,0.30
2022-11-12T02:04:44.321Z,0.20
2022-11-12T02:07:32.279Z,0.20
2022-11-12T02:10:19.177Z,0.20
2022-11-12T02:13:23.383Z,0.20
2022-11-12T02:16:11.629Z,0.20
2022-11-12T02:18:58.169Z,0.20
2022-11-12T02:21:46.715Z,0.10
2022-11-12T02:24:36.785Z,0.20
2022-11-12T02:27:25.163Z,0.20
2022-11-12T02:30:12.467Z,0.10
2022-11-12T02:32:59.662Z,0.10
2022-11-12T02:35:46.463Z,0.10
2022-11-12T02:38:34.693Z,0.10
2022-11-12T02:41:21.363Z,0.10
2022-11-12T02:44:07.986Z,0.00
2022-11-12T02:46:54.639Z,0.00
2022-11-12T02:49:41.148Z,0.00
2022-11-12T02:52:27.655Z,0.00
2022-11-12T02:55:15.891Z,0.00
2022-11-12T02:58:02.668Z,0.00
2022-11-12T03:00:49.879Z,0.00
2022-11-12T03:03:36.415Z,0.00
2022-11-12T03:06:23.411Z,-0.10
2022-11-12T03:09:11.762Z,-0.10
2022-11-12T03:12:00.031Z,-0.10
2022-11-12T03:14:46.678Z,-0.10
2022-11-12T03:17:35.491Z,-0.20
2022-11-12T03:20:22.162Z,-0.20
2022-11-12T03:23:10.372Z,-0.20
2022-11-12T03:25:56.941Z,-0.20
2022-11-12T03:28:44.684Z,-0.20
2022-11-12T03:31:31.503Z,-0.20
2022-11-12T03:34:18.194Z,-0.10
2022-11-12T03:37:04.670Z,-0.10
2022-11-12T03:39:51.406Z,-0.10
2022-11-12T03:42:38.053Z,-0.10
2022-11-12T03:45:27.884Z,-0.10
2022-11-12T03:48:14.692Z,-0.20
2022-11-12T03:51:01.739Z,-0.20
2022-11-12T03:54:00.669Z,-0.20
2022-11-12T03:56:47.610Z,-0.20
2022-11-12T03:59:34.226Z,-0.30
2022-11-12T04:02:22.551Z,-0.30
2022-11-12T04:05:28.515Z,-0.30
2022-11-12T04:08:36.101Z,-0.30
2022-11-12T04:11:23.036Z,-0.30
2022-11-12T04:14:08.520Z,-0.30
2022-11-12T04:17:12.591Z,-0.30
2022-11-12T04:20:18.315Z,-0.30
2022-11-12T04:23:05.124Z,-0.30
2022-11-12T04:26:09.594Z,-0.40
2022-11-12T04:29:13.571Z,-0.40
2022-11-12T04:32:00.314Z,-0.40
2022-11-12T04:34:47.092Z,-0.40
2022-11-12T04:37:45.180Z,-0.40
2022-11-12T04:40:50.177Z,-0.50
2022-11-12T04:43:53.579Z,-0.40
2022-11-12T04:46:40.165Z,-0.50
2022-11-12T04:49:26.841Z,-0.50
2022-11-12T04:52:13.614Z,-0.50
2022-11-12T04:55:01.786Z,-0.60
2022-11-12T04:57:48.577Z,-0.60
2022-11-12T05:00:35.365Z,-0.60
2022-11-12T05:03:22.235Z,-0.60
2022-11-12T05:06:29.872Z,-0.60
2022-11-12T05:09:16.740Z,-0.60
2022-11-12T05:12:04.925Z,-0.60
2022-11-12T05:14:51.588Z,-0.60
2022-11-12T05:17:38.321Z,-0.60
2022-11-12T05:20:24.847Z,-0.70
2022-11-12T05:23:11.610Z,-0.60
2022-11-12T05:25:58.316Z,-0.70
2022-11-12T05:28:46.068Z,-0.70
2022-11-12T05:31:32.954Z,-0.70
2022-11-12T05:34:22.908Z,-0.70
2022-11-12T05:37:11.669Z,-0.70
2022-11-12T05:39:58.261Z,-0.70
2022-11-12T05:42:45.940Z,-0.70
2022-11-12T05:45:33.958Z,-0.80
2022-11-12T05:48:24.397Z,-0.80
2022-11-12T05:51:14.192Z,-0.70
2022-11-12T05:54:02.828Z,-0.80
2022-11-12T05:56:49.571Z,-0.80
2022-11-12T05:59:35.983Z,-0.80
2022-11-12T06:02:24.148Z,-0.80
2022-11-12T06:05:11.201Z,-0.80
2022-11-12T06:07:57.848Z,-0.70
2022-11-12T06:10:48.901Z,-0.80
2022-11-12T06:13:35.433Z,-0.90
2022-11-12T06:16:22.360Z,-0.90
2022-11-12T06:19:10.343Z,-0.90
2022-11-12T06:21:57.105Z,-0.90
2022-11-12T06:24:43.824Z,-0.90
2022-11-12T06:27:30.707Z,-0.90
2022-11-12T06:30:17.554Z,-0.90
2022-11-12T06:33:06.528Z,-0.90
2022-11-12T06:36:02.994Z,-0.90
2022-11-12T06:38:49.948Z,-0.90
2022-11-12T06:41:36.566Z,-0.90
2022-11-12T06:44:23.135Z,-0.90
2022-11-12T06:47:10.199Z,-0.90
2022-11-12T06:49:56.786Z,-0.90
2022-11-12T06:52:44.911Z,-0.90
2022-11-12T06:55:31.937Z,-1.00
2022-11-12T06:58:18.539Z,-0.90
2022-11-12T07:01:11.241Z,-0.90
2022-11-12T07:03:58.481Z,-0.90
2022-11-12T07:06:45.050Z,-0.90
2022-11-12T07:09:33.252Z,-0.80
2022-11-12T07:12:20.087Z,-0.90
2022-11-12T07:15:07.760Z,-0.80
2022-11-12T07:17:54.483Z,-0.80
2022-11-12T07:20:40.976Z,-0.80
2022-11-12T07:23:27.922Z,-0.80
2022-11-12T07:26:17.833Z,-0.80
2022-11-12T07:29:04.445Z,-0.70
2022-11-12T07:31:51.609Z,-0.70
2022-11-12T07:34:38.576Z,-0.70
2022-11-12T07:37:25.420Z,-0.60
2022-11-12T07:40:13.016Z,-0.60
2022-11-12T07:43:01.524Z,-0.50
2022-11-12T07:45:48.294Z,-0.50
2022-11-12T07:48:35.144Z,-0.40
2022-11-12T07:51:23.435Z,-0.40
2022-11-12T07:54:10.068Z,-0.30
2022-11-12T07:56:56.964Z,-0.20
2022-11-12T07:59:46.492Z,-0.10
2022-11-12T08:02:33.167Z,0.00
2022-11-12T08:05:21.472Z,0.10
2022-11-12T08:08:08.437Z,0.30
2022-11-12T08:10:57.293Z,0.40
2022-11-12T08:13:43.700Z,0.50
2022-11-12T08:16:31.545Z,0.60
2022-11-12T08:19:18.457Z,0.80
2022-11-12T08:22:05.983Z,0.90
2022-11-12T08:24:52.589Z,1.00
2022-11-12T08:27:56.442Z,1.10
2022-11-12T08:30:43.069Z,1.30
2022-11-12T08:33:31.555Z,1.40
2022-11-12T08:36:19.471Z,1.50
2022-11-12T08:39:06.419Z,1.60
2022-11-12T08:41:52.875Z,1.70
2022-11-12T08:44:39.511Z,1.80
2022-11-12T08:47:26.041Z,1.90
2022-11-12T08:50:14.424Z,1.90
2022-11-12T08:53:02.521Z,2.00
2022-11-12T08:55:49.321Z,2.10
2022-11-12T08:58:36.041Z,2.20
2022-11-12T09:01:22.782Z,2.20
2022-11-12T09:04:09.325Z,2.30
2022-11-12T09:06:57.681Z,2.30
2022-11-12T09:09:44.469Z,2.40
2022-11-12T09:12:31.362Z,2.50
2022-11-12T09:18:24.826Z,2.60
2022-11-12T09:21:13.124Z,2.70
2022-11-12T09:24:00.918Z,2.80
2022-11-12T09:26:48.370Z,3.00
2022-11-12T09:29:34.856Z,3.00
2022-11-12T09:32:22.423Z,3.20
2022-11-12T09:35:09.847Z,3.30
2022-11-12T09:37:56.350Z,3.50
2022-11-12T09:40:56.148Z,3.70
2022-11-12T09:43:48.664Z,4.00
2022-11-12T09:46:41.512Z,4.20
2022-11-12T09:49:33.485Z,4.40
2022-11-12T09:52:23.961Z,4.70
2022-11-12T09:55:19.592Z,5.00
2022-11-12T09:58:12.603Z,5.20
2022-11-12T10:01:03.097Z,5.40
2022-11-12T10:04:00.563Z,5.60
2022-11-12T10:06:52.866Z,5.80
2022-11-12T10:09:53.120Z,6.10
2022-11-12T10:12:51.383Z,6.30
2022-11-12T10:16:04.830Z,6.50
2022-11-12T10:19:05.275Z,6.80
2022-11-12T10:21:59.066Z,7.00
2022-11-12T10:24:46.563Z,7.20
2022-11-12T10:27:39.681Z,7.40
2022-11-12T10:30:27.002Z,7.60
2022-11-12T10:33:16.521Z,7.80
2022-11-12T10:36:19.515Z,8.10
2022-11-12T10:39:06.357Z,8.20
2022-11-12T10:42:04.568Z,8.40
2022-11-12T10:44:51.779Z,8.60
2022-11-12T10:47:42.767Z,8.70
2022-11-12T10:50:35.769Z,9.00
2022-11-12T10:53:34.717Z,9.10
2022-11-12T10:56:29.912Z,9.20
2022-11-12T10:59:18.045Z,9.30
2022-11-12T11:02:04.717Z,9.50
2022-11-12T11:04:51.052Z,9.60
2022-11-12T11:07:38.857Z,9.70
2022-11-12T11:10:28.390Z,9.90
2022-11-12T11:13:23.512Z,10.00
2022-11-12T11:16:14.376Z,10.20
2022-11-12T11:19:04.373Z,10.30
2022-11-12T11:22:08.857Z,10.50
2022-11-12T11:25:11.448Z,10.60
2022-11-12T11:28:07.041Z,10.80
2022-11-12T11:30:58.770Z,10.90
2022-11-12T11:33:49.646Z,11.20
2022-11-12T11:36:44.409Z,11.20
2022-11-12T11:39:43.565Z,11.40
2022-11-12T11:42:58.104Z,11.50
2022-11-12T11:46:01.668Z,11.70
2022-11-12T11:49:05.585Z,12.00
2022-11-12T11:51:58.171Z,12.10
2022-11-12T11:54:59.130Z,12.20
2022-11-12T11:57:56.365Z,12.30
2022-11-12T12:00:49.393Z,12.40
2022-11-12T12:03:51.517Z,12.50
2022-11-12T12:06:47.104Z,12.50
2022-11-12T12:09:42.121Z,12.70
2022-11-12T12:12:45.437Z,12.90
2022-11-12T12:15:47.721Z,13.10
2022-11-12T12:18:42.897Z,13.10
2022-11-12T12:21:34.215Z,13.30
2022-11-12T12:24:24.945Z,13.50
2022-11-12T12:27:15.536Z,13.60
2022-11-12T12:30:05.963Z,13.80
2022-11-12T12:32:58.838Z,14.00
2022-11-12T12:35:53.699Z,14.20
2022-11-12T12:38:45.614Z,14.30
2022-11-12T12:41:40.205Z,14.40
2022-11-12T12:44:44.991Z,14.40
2022-11-12T12:47:39.250Z,14.50
2022-11-12T12:50:28.029Z,14.70
2022-11-12T12:53:20.049Z,14.70
2022-11-12T12:56:08.174Z,14.80
2022-11-12T12:58:56.239Z,15.00
2022-11-12T13:01:42.758Z,15.10
2022-11-12T13:04:52.385Z,15.20
2022-11-12T13:07:43.653Z,15.40
2022-11-12T13:10:49.405Z,15.40
2022-11-12T13:13:38.153Z,15.70
2022-11-12T13:16:58.087Z,15.80
2022-11-12T13:20:09.111Z,15.80
2022-11-12T13:22:57.193Z,15.80
2022-11-12T13:25:44.018Z,15.70
2022-11-12T13:28:30.702Z,15.50
2022-11-12T13:31:28.323Z,15.30
2022-11-12T13:34:22.927Z,15.10
2022-11-12T13:37:21.350Z,15.00
2022-11-12T13:40:15.170Z,14.80
2022-11-12T13:43:08.621Z,14.70
2022-11-12T13:46:00.372Z,14.70
2022-11-12T13:48:49.529Z,14.60
2022-11-12T13:51:40.346Z,14.60
2022-11-12T13:54:35.489Z,14.50
2022-11-12T13:57:32.579Z,14.50
2022-11-12T14:00:26.277Z,14.40
2022-11-12T14:03:19.564Z,14.30
2022-11-12T14:06:15.799Z,14.20
2022-11-12T14:09:15.765Z,14.00
2022-11-12T14:12:18.050Z,13.80
2022-11-12T14:15:23.572Z,13.70
2022-11-12T14:18:20.729Z,13.60
2022-11-12T14:21:11.888Z,13.50
2022-11-12T14:23:58.844Z,13.40
2022-11-12T14:26:45.413Z,13.20
2022-11-12T14:29:36.018Z,13.10
2022-11-12T14:32:25.209Z,12.90
2022-11-12T14:35:26.730Z,12.90
2022-11-12T14:38:18.319Z,12.70
2022-11-12T14:41:09.643Z,12.50
2022-11-12T14:44:12.045Z,12.50
2022-11-12T14:47:00.115Z,12.40
2022-11-12T14:49:49.883Z,12.30
2022-11-12T14:52:42.796Z,12.20
2022-11-12T14:55:32.549Z,12.10
2022-11-12T14:58:21.468Z,11.90
2022-11-12T15:02:03.724Z,11.70
2022-11-12T15:04:38.319Z,11.60
2022-11-12T15:07:28.840Z,11.30
2022-11-12T15:10:34.906Z,11.50
2022-11-12T15:13:24.891Z,11.10
2022-11-12T15:16:19.855Z,11.00
2022-11-12T15:19:19.999Z,10.90
2022-11-12T15:22:06.592Z,10.70
2022-11-12T15:24:54.485Z,10.50
2022-11-12T15:27:42.766Z,10.40
2022-11-12T15:30:32.194Z,10.30
2022-11-12T15:33:23.251Z,10.20
2022-11-12T15:36:17.674Z,10.10
2022-11-12T15:39:04.864Z,9.90
2022-11-12T15:41:59.979Z,9.80
2022-11-12T15:44:46.885Z,9.70
2022-11-12T15:47:33.570Z,9.60
2022-11-12T15:50:22.923Z,9.50
2022-11-12T15:53:09.521Z,9.40
2022-11-12T15:55:56.132Z,9.30
2022-11-12T15:58:44.159Z,9.10
2022-11-12T16:01:30.967Z,9.00
2022-11-12T16:04:17.540Z,8.90
2022-11-12T16:07:06.869Z,8.90
2022-11-12T16:09:54.166Z,8.70
2022-11-12T16:12:41.473Z,8.60
2022-11-12T16:15:30.769Z,8.50
2022-11-12T16:18:17.686Z,8.40
2022-11-12T16:21:05.897Z,8.30
2022-11-12T16:23:52.661Z,8.30
2022-11-12T16:26:39.557Z,8.20
2022-11-12T16:29:26.381Z,8.40
2022-11-12T16:32:15.348Z,8.10
2022-11-12T16:35:01.957Z,8.10
2022-11-12T16:37:49.045Z,8.00
2022-11-12T16:40:35.777Z,7.80
2022-11-12T16:43:22.124Z,7.80
2022-11-12T16:46:25.980Z,7.70
2022-11-12T16:49:15.545Z,7.70
2022-11-12T16:52:02.264Z,7.60
2022-11-12T16:54:49.081Z,7.50
2022-11-12T16:57:35.727Z,7.40
2022-11-12T17:00:22.642Z,7.30
2022-11-12T17:03:12.849Z,7.20
2022-11-12T17:06:00.601Z,7.20
2022-11-12T17:08:48.103Z,7.10
2022-11-12T17:11:35.872Z,7.10
2022-11-12T17:14:27.113Z,7.00
2022-11-12T17:17:15.300Z,6.90
2022-11-12T17:20:03.393Z,6.80
2022-11-12T17:22:51.197Z,6.80
2022-11-12T17:25:37.936Z,6.70
2022-11-12T17:28:24.443Z,6.60
2022-11-12T17:31:13.100Z,6.60
2022-11-12T17:34:00.096Z,6.50
2022-11-12T17:36:46.836Z,6.50
2022-11-12T17:39:34.854Z,6.40
2022-11-12T17:42:21.590Z,6.40
2022-11-12T17:45:09.308Z,6.40
2022-11-12T17:47:55.592Z,6.40
2022-11-12T17:50:42.441Z,6.30
2022-11-12T17:53:30.765Z,6.30
2022-11-12T17:56:21.214Z,6.30
2022-11-12T17:59:08.124Z,6.30
2022-11-12T18:01:55.279Z,6.20
2022-11-12T18:04:42.113Z,6.20
2022-11-12T18:07:28.834Z,6.20
2022-11-12T18:10:19.398Z,6.20
2022-11-12T18:13:07.587Z,6.10
2022-11-12T18:15:54.203Z,6.10
2022-11-12T18:18:40.803Z,6.10
2022-11-12T18:21:28.879Z,6.00
2022-11-12T18:24:17.140Z,6.00
2022-11-12T18:27:03.700Z,6.00
2022-11-12T18:29:51.464Z,6.20
2022-11-12T18:32:39.258Z,6.00
2022-11-12T18:35:29.749Z,6.10
2022-11-12T18:38:17.981Z,6.00
2022-11-12T18:41:05.846Z,6.00
2022-11-12T18:43:54.047Z,6.00
2022-11-12T18:46:42.108Z,6.00
2022-11-12T18:49:29.416Z,6.00
2022-11-12T18:52:16.117Z,5.90
2022-11-12T18:55:03.933Z,5.90
2022-11-12T18:57:50.367Z,5.90
2022-11-12T19:00:37.663Z,5.80
2022-11-12T19:03:26.043Z,5.80
2022-11-12T19:06:14.152Z,5.70
2022-11-12T19:09:01.526Z,5.70
2022-11-12T19:11:48.050Z,5.60
2022-11-12T19:14:34.792Z,5.60
2022-11-12T19:17:21.391Z,5.50
2022-11-12T19:20:10.596Z,5.50
2022-11-12T19:22:57.541Z,5.40
2022-11-12T19:25:44.431Z,5.40
2022-11-12T19:28:31.398Z,5.30
2022-11-12T19:31:19.707Z,5.20
2022-11-12T19:34:06.179Z,5.20
2022-11-12T19:37:11.955Z,5.10
2022-11-12T19:40:01.021Z,5.00
2022-11-12T19:42:47.895Z,5.00
2022-11-12T19:45:34.635Z,4.90
2022-11-12T19:48:21.403Z,4.80
2022-11-12T19:51:10.384Z,4.80
2022-11-12T19:53:58.217Z,4.70
2022-11-12T19:56:44.660Z,4.70
2022-11-12T19:59:31.469Z,4.60
2022-11-12T20:02:18.160Z,4.50
2022-11-12T20:05:05.427Z,4.40
2022-11-12T20:07:52.502Z,4.40
2022-11-12T20:10:40.625Z,4.40
2022-11-12T20:13:27.363Z,4.30
2022-11-12T20:16:19.498Z,4.20
2022-11-12T20:19:10.229Z,4.20
2022-11-12T20:21:56.909Z,4.10
2022-11-12T20:24:43.536Z,4.10
2022-11-12T20:27:31.403Z,4.10
2022-11-12T20:30:18.521Z,4.10
2022-11-12T20:33:05.380Z,4.00
2022-11-12T20:35:51.921Z,4.10
2022-11-12T20:38:39.153Z,4.00
2022-11-12T20:41:27.391Z,4.00
2022-11-12T20:44:15.140Z,3.90
2022-11-12T20:47:01.651Z,3.90
2022-11-12T20:49:48.480Z,3.80
2022-11-12T20:52:34.920Z,3.80
2022-11-12T20:55:21.632Z,3.80
2022-11-12T20:58:08.359Z,3.80
2022-11-12T21:00:56.168Z,3.80
2022-11-12T21:03:44.298Z,3.80
2022-11-12T21:06:31.257Z,3.70
2022-11-12T21:09:17.840Z,3.70
2022-11-12T21:12:04.725Z,3.70
2022-11-12T21:14:51.268Z,3.70
2022-11-12T21:17:39.682Z,3.70
2022-11-12T21:20:26.128Z,3.70
2022-11-12T21:23:12.904Z,3.60
2022-11-12T21:26:04.471Z,3.60
2022-11-12T21:28:52.613Z,3.50
2022-11-12T21:31:39.262Z,3.50
2022-11-12T21:34:27.391Z,3.60
2022-11-12T21:37:14.179Z,3.50
2022-11-12T21:40:00.995Z,3.50
2022-11-12T21:42:47.604Z,3.50
2022-11-12T21:45:34.473Z,3.50
2022-11-12T21:48:20.968Z,3.50
2022-11-12T21:51:12.000Z,3.40
2022-11-12T21:54:00.250Z,3.40
2022-11-12T21:56:47.065Z,3.40
2022-11-12T21:59:34.147Z,3.40
2022-11-12T22:02:20.874Z,3.40
2022-11-12T22:05:07.833Z,3.30
2022-11-12T22:07:56.271Z,3.30
2022-11-12T22:10:42.790Z,3.30
2022-11-12T22:13:29.429Z,3.30
2022-11-12T22:16:18.311Z,3.30
2022-11-12T22:19:05.143Z,3.30
2022-11-12T22:21:51.847Z,3.30
2022-11-12T22:24:40.240Z,3.20
2022-11-12T22:27:29.206Z,3.20
2022-11-12T22:30:15.946Z,3.20
2022-11-12T22:33:02.668Z,3.20
2022-11-12T22:35:49.391Z,3.20
2022-11-12T22:38:37.044Z,3.20
2022-11-12T22:41:26.522Z,3.20
2022-11-12T22:44:13.264Z,3.20
2022-11-12T22:47:00.017Z,3.20
2022-11-12T22:49:46.472Z,3.20
2022-11-12T22:52:32.944Z,3.20
2022-11-12T22:55:19.549Z,3.20
2022-11-12T22:58:07.365Z,3.20
2022-11-12T23:00:53.982Z,3.10
2022-11-12T23:03:40.327Z,3.10
2022-11-12T23:06:28.089Z,3.10
2022-11-12T23:09:17.169Z,3.10
2022-11-12T23:12:03.605Z,3.10
2022-11-12T23:14:51.591Z,3.10
2022-11-12T23:17:38.480Z,3.20
2022-11-12T23:20:25.138Z,3.10
2022-11-12T23:23:11.669Z,3.10
2022-11-12T23:26:03.285Z,3.10
2022-11-12T23:28:50.244Z,3.10
2022-11-12T23:31:38.329Z,3.10
2022-11-12T23:34:25.153Z,3.10
2022-11-12T23:37:11.537Z,3.10
2022-11-12T23:39:58.153Z,3.10
2022-11-12T23:42:44.932Z,3.10
2022-11-12T23:45:31.344Z,3.10
2022-11-12T23:48:19.868Z,3.10
2022-11-12T23:51:09.107Z,3.10
2022-11-12T23:53:55.806Z,3.10
2022-11-12T23:56:42.675Z,3.10
2022-11-12T23:59:29.476Z,3.10
